createdAt,value
2022-10-31T11:03:46.356Z,100961.89
2022-10-31T11:06:22.317Z,100963.24
2022-10-31T11:08:49.811Z,100964.94
2022-10-31T11:11:30.000Z,100966.64
2022-10-31T11:14:03.306Z,100963.51
2022-10-31T11:16:46.314Z,100963.03
2022-10-31T11:19:12.733Z,100962.89
2022-10-31T11:21:39.251Z,100963.57
2022-10-31T11:24:11.821Z,100961.64
2022-10-31T11:26:40.018Z,100962.13
2022-10-31T11:29:31.778Z,100961.56
2022-10-31T11:32:01.261Z,100961.73
2022-10-31T11:34:35.482Z,100960.17
2022-10-31T11:37:11.053Z,100956.79
2022-10-31T11:39:42.847Z,100958.08
2022-10-31T11:42:09.498Z,100954.04
2022-10-31T11:44:36.120Z,100948.14
2022-10-31T15:52:33.447Z,100936.59
2022-10-31T15:55:04.682Z,100939.98
2022-10-31T15:57:31.638Z,100943.76
2022-10-31T15:59:58.582Z,100945.67
2022-10-31T16:02:28.373Z,100953.05
2022-10-31T16:05:02.272Z,100958.23
2022-10-31T16:07:32.159Z,100959.13
2022-10-31T16:10:01.182Z,100967.77
2022-10-31T16:12:36.463Z,100967.49
2022-10-31T16:15:05.706Z,100968.71
2022-10-31T16:17:32.730Z,100969.34
2022-10-31T16:20:01.945Z,100973.45
2022-10-31T16:22:31.616Z,100973.11
2022-10-31T16:25:06.720Z,100976.48
2022-10-31T16:27:36.405Z,100980.52
2022-10-31T16:30:25.103Z,100984.19
2022-10-31T16:32:57.133Z,100987.16
2022-10-31T16:35:38.835Z,100987.13
2022-10-31T16:38:06.385Z,100988.51
2022-10-31T16:40:33.496Z,100987.27
2022-10-31T16:43:01.279Z,100987.58
2022-10-31T16:45:31.046Z,100990.52
2022-10-31T16:48:12.319Z,100998.40
2022-10-31T16:50:39.373Z,100998.20
2022-10-31T16:53:13.833Z,100996.61
2022-10-31T16:55:47.650Z,100995.02
2022-10-31T16:58:33.784Z,100999.58
2022-10-31T17:01:01.880Z,100998.33
2022-10-31T17:03:28.604Z,100996.55
2022-10-31T17:05:55.096Z,101000.23
2022-10-31T17:08:21.712Z,101001.80
2022-10-31T17:10:51.607Z,101007.23
2022-10-31T17:13:21.128Z,101012.65
2022-10-31T17:15:54.045Z,101009.83
2022-10-31T17:18:26.097Z,101013.31
2022-10-31T17:20:59.301Z,101011.02
2022-10-31T17:23:26.088Z,101004.71
2022-10-31T17:25:52.566Z,101005.60
2022-10-31T17:28:19.065Z,101009.63
2022-10-31T17:30:45.605Z,101009.98
2022-10-31T17:33:13.875Z,101007.89
2022-10-31T17:35:40.618Z,101009.63
2022-10-31T17:38:07.059Z,101011.73
2022-10-31T17:40:33.671Z,101007.52
2022-10-31T17:43:00.539Z,101009.62
2022-10-31T17:45:27.345Z,101004.34
2022-10-31T17:47:54.334Z,101005.57
2022-10-31T17:50:25.790Z,101007.33
2022-10-31T17:52:52.902Z,101004.16
2022-10-31T17:55:20.095Z,101009.45
2022-10-31T17:57:46.533Z,101010.14
2022-10-31T18:00:18.653Z,101009.78
2022-10-31T18:02:45.340Z,101010.50
2022-10-31T18:05:12.086Z,101011.00
2022-10-31T18:07:38.732Z,101011.50
2022-10-31T18:10:06.382Z,101010.77
2022-10-31T18:12:36.163Z,101012.17
2022-10-31T18:15:02.760Z,101006.54
2022-10-31T18:17:29.284Z,101007.25
2022-10-31T18:19:55.871Z,101008.13
2022-10-31T18:22:22.406Z,101010.23
2022-10-31T18:24:48.888Z,101008.30
2022-10-31T18:27:15.431Z,101012.52
2022-10-31T18:29:41.877Z,101010.73
2022-10-31T18:32:11.141Z,101012.29
2022-10-31T18:34:37.581Z,101012.79
2022-10-31T18:37:04.180Z,101010.13
2022-10-31T18:39:30.684Z,101012.60
2022-10-31T18:41:57.248Z,101011.37
2022-10-31T18:44:23.770Z,101008.38
2022-10-31T18:46:50.240Z,101003.29
2022-10-31T18:49:16.765Z,101001.02
2022-10-31T18:51:43.201Z,100998.57
2022-10-31T18:54:09.666Z,101000.50
2022-10-31T18:56:36.133Z,101004.88
2022-10-31T18:59:02.771Z,101003.48
2022-10-31T19:01:29.554Z,101002.77
2022-10-31T19:03:57.930Z,101005.57
2022-10-31T19:06:26.049Z,101005.39
2022-10-31T19:09:00.870Z,101003.80
2022-10-31T19:11:27.861Z,101005.90
2022-10-31T19:13:54.540Z,101004.34
2022-10-31T19:16:21.044Z,101004.17
2022-10-31T19:18:47.496Z,101002.95
2022-10-31T19:21:18.096Z,101003.98
2022-10-31T19:23:45.627Z,101003.10
2022-10-31T19:26:12.767Z,101000.98
2022-10-31T19:28:40.922Z,100999.93
2022-10-31T19:31:08.368Z,100999.59
2022-10-31T19:33:36.383Z,100998.34
2022-10-31T19:36:07.357Z,101006.40
2022-10-31T19:38:35.031Z,101005.87
2022-10-31T19:41:04.631Z,100999.55
2022-10-31T19:43:31.094Z,101000.95
2022-10-31T19:45:59.329Z,101000.77
2022-10-31T19:48:26.575Z,101006.20
2022-10-31T19:50:58.537Z,101003.38
2022-10-31T19:53:25.195Z,101002.66
2022-10-31T19:55:51.634Z,101006.51
2022-10-31T19:58:18.354Z,101008.06
2022-10-31T20:00:45.118Z,101007.54
2022-10-31T20:03:11.676Z,101006.14
2022-10-31T20:05:41.875Z,101007.36
2022-10-31T20:08:20.218Z,101007.18
2022-10-31T20:10:57.787Z,101010.88
2022-10-31T20:13:24.956Z,101010.39
2022-10-31T20:15:52.169Z,101012.14
2022-10-31T20:18:19.105Z,101010.73
2022-10-31T20:20:46.051Z,101008.45
2022-10-31T20:23:12.514Z,101006.16
2022-10-31T20:25:47.253Z,101012.50
2022-10-31T20:28:13.741Z,101013.90
2022-10-31T20:30:40.203Z,101015.84
2022-10-31T20:33:07.125Z,101016.70
2022-10-31T20:35:37.588Z,101014.95
2022-10-31T20:38:04.687Z,101014.06
2022-10-31T20:40:31.986Z,101012.30
2022-10-31T20:42:58.812Z,101013.52
2022-10-31T20:45:25.269Z,101011.23
2022-10-31T20:47:51.721Z,101011.58
2022-10-31T20:50:18.192Z,101013.48
2022-10-31T20:52:44.686Z,101017.70
2022-10-31T20:55:11.200Z,101016.45
2022-10-31T20:57:37.679Z,101017.31
2022-10-31T21:00:06.157Z,101018.70
2022-10-31T21:02:32.963Z,101017.83
2022-10-31T21:04:59.461Z,101015.02
2022-10-31T21:07:25.899Z,101016.61
2022-10-31T21:09:52.375Z,101015.04
2022-10-31T21:12:18.853Z,101014.52
2022-10-31T21:14:45.291Z,101016.44
2022-10-31T21:17:11.754Z,101012.74
2022-10-31T21:19:39.488Z,101011.70
2022-10-31T21:22:05.953Z,101013.63
2022-10-31T21:24:32.459Z,101013.29
2022-10-31T21:26:58.925Z,101011.52
2022-10-31T21:29:25.374Z,101008.89
2022-10-31T21:31:52.208Z,101007.50
2022-10-31T21:34:18.698Z,101006.98
2022-10-31T21:36:45.276Z,101002.60
2022-10-31T21:39:11.842Z,101002.74
2022-10-31T21:41:38.293Z,101005.36
2022-10-31T21:44:05.439Z,101002.73
2022-10-31T21:46:33.621Z,101000.26
2022-10-31T21:49:02.405Z,100998.50
2022-10-31T21:51:31.410Z,100994.13
2022-10-31T21:53:58.592Z,100993.09
2022-10-31T21:56:25.958Z,100991.70
2022-10-31T21:58:53.541Z,100990.83
2022-10-31T22:01:21.286Z,100987.82
2022-10-31T22:03:48.620Z,100990.07
2022-10-31T22:06:15.795Z,100986.88
2022-10-31T22:08:42.769Z,100986.31
2022-10-31T22:11:14.866Z,100986.65
2022-10-31T22:13:43.268Z,100991.71
2022-10-31T22:16:15.577Z,100986.98
2022-10-31T22:18:42.933Z,100988.01
2022-10-31T22:21:12.432Z,100988.16
2022-10-31T22:23:39.830Z,100984.31
2022-10-31T22:26:08.721Z,100985.53
2022-10-31T22:28:35.925Z,100989.75
2022-10-31T22:31:06.196Z,100989.39
2022-10-31T22:33:33.347Z,100990.44
2022-10-31T22:36:11.652Z,100986.04
2022-10-31T22:38:39.694Z,100985.34
2022-10-31T22:41:18.530Z,100986.73
2022-10-31T22:43:45.897Z,100988.32
2022-10-31T22:46:24.122Z,100984.81
2022-10-31T22:48:53.431Z,100985.16
2022-10-31T22:51:25.967Z,100983.75
2022-10-31T22:53:53.189Z,100982.34
2022-10-31T22:56:21.736Z,100980.09
2022-10-31T22:58:48.532Z,100981.48
2022-10-31T23:01:20.378Z,100978.83
2022-10-31T23:03:47.778Z,100977.05
2022-10-31T23:06:20.238Z,100974.60
2022-10-31T23:08:47.242Z,100968.98
2022-10-31T23:11:22.431Z,100966.52
2022-10-31T23:13:51.012Z,100966.36
2022-10-31T23:16:17.461Z,100966.02
2022-10-31T23:18:50.020Z,100968.29
2022-10-31T23:21:17.430Z,100969.83
2022-10-31T23:23:43.863Z,100971.05
2022-10-31T23:26:10.300Z,100971.41
2022-10-31T23:28:36.762Z,100968.80
2022-10-31T23:31:03.241Z,100966.86
2022-10-31T23:33:31.555Z,100965.30
2022-10-31T23:35:58.140Z,100966.19
2022-10-31T23:38:24.611Z,100967.25
2022-10-31T23:40:51.050Z,100967.60
2022-10-31T23:43:19.556Z,100960.41
2022-10-31T23:45:46.015Z,100962.89
2022-10-31T23:48:12.477Z,100959.75
2022-10-31T23:50:38.971Z,100961.88
2022-10-31T23:53:05.460Z,100961.35
2022-10-31T23:55:31.930Z,100959.27
2022-10-31T23:57:58.505Z,100949.83
